sensor_id;sensor_type;location;lat;lon;timestamp;P1;durP1;ratioP1;P2;durP2;ratioP2
19985;SDS011;10154;52.474;10.768;2023-03-23T00:01:26;2.37;;;1.10;;
19985;SDS011;10154;52.474;10.768;2023-03-23T00:03:55;4.60;;;1.10;;
19985;SDS011;10154;52.474;10.768;2023-03-23T00:06:22;3.57;;;1.20;;
19985;SDS011;10154;52.474;10.768;2023-03-23T00:08:50;3.70;;;1.30;;
19985;SDS011;10154;52.474;10.768;2023-03-23T00:11:22;2.23;;;1.00;;
19985;SDS011;10154;52.474;10.768;2023-03-23T00:13:51;1.70;;;1.00;;
19985;SDS011;10154;52.474;10.768;2023-03-23T00:16:16;4.00;;;1.23;;
19985;SDS011;10154;52.474;10.768;2023-03-23T00:18:53;4.07;;;1.30;;
19985;SDS011;10154;52.474;10.768;2023-03-23T00:21:20;3.53;;;1.20;;
19985;SDS011;10154;52.474;10.768;2023-03-23T00:24:08;4.00;;;1.33;;
19985;SDS011;10154;52.474;10.768;2023-03-23T00:26:36;3.00;;;1.20;;
19985;SDS011;10154;52.474;10.768;2023-03-23T00:29:06;4.57;;;1.60;;
19985;SDS011;10154;52.474;10.768;2023-03-23T00:31:32;3.93;;;1.60;;
19985;SDS011;10154;52.474;10.768;2023-03-23T00:34:00;3.67;;;1.60;;
19985;SDS011;10154;52.474;10.768;2023-03-23T00:36:27;3.00;;;1.50;;
19985;SDS011;10154;52.474;10.768;2023-03-23T00:38:53;4.43;;;1.83;;
19985;SDS011;10154;52.474;10.768;2023-03-23T00:41:19;2.73;;;1.63;;
19985;SDS011;10154;52.474;10.768;2023-03-23T00:43:44;2.40;;;1.60;;
19985;SDS011;10154;52.474;10.768;2023-03-23T00:46:09;3.67;;;1.80;;
19985;SDS011;10154;52.474;10.768;2023-03-23T00:48:36;4.43;;;2.10;;
19985;SDS011;10154;52.474;10.768;2023-03-23T00:51:05;3.00;;;1.80;;
19985;SDS011;10154;52.474;10.768;2023-03-23T00:53:35;2.93;;;1.80;;
19985;SDS011;10154;52.474;10.768;2023-03-23T00:56:00;3.90;;;1.90;;
19985;SDS011;10154;52.474;10.768;2023-03-23T00:58:26;2.77;;;2.00;;
19985;SDS011;10154;52.474;10.768;2023-03-23T01:00:51;3.87;;;1.90;;
19985;SDS011;10154;52.474;10.768;2023-03-23T01:03:16;6.83;;;2.20;;
19985;SDS011;10154;52.474;10.768;2023-03-23T01:05:43;4.90;;;2.20;;
19985;SDS011;10154;52.474;10.768;2023-03-23T01:08:12;3.53;;;1.93;;
19985;SDS011;10154;52.474;10.768;2023-03-23T01:10:39;2.93;;;1.90;;
19985;SDS011;10154;52.474;10.768;2023-03-23T01:13:05;4.57;;;1.93;;
19985;SDS011;10154;52.474;10.768;2023-03-23T01:15:31;3.17;;;1.97;;
19985;SDS011;10154;52.474;10.768;2023-03-23T01:17:57;3.23;;;2.07;;
19985;SDS011;10154;52.474;10.768;2023-03-23T01:20:24;6.13;;;2.20;;
19985;SDS011;10154;52.474;10.768;2023-03-23T01:22:51;5.10;;;2.00;;
19985;SDS011;10154;52.474;10.768;2023-03-23T01:25:17;6.33;;;2.20;;
19985;SDS011;10154;52.474;10.768;2023-03-23T01:27:43;6.03;;;2.20;;
19985;SDS011;10154;52.474;10.768;2023-03-23T01:30:10;8.03;;;2.00;;
19985;SDS011;10154;52.474;10.768;2023-03-23T01:32:49;4.20;;;2.30;;
19985;SDS011;10154;52.474;10.768;2023-03-23T01:36:20;5.13;;;2.10;;
19985;SDS011;10154;52.474;10.768;2023-03-23T01:38:48;3.63;;;2.30;;
19985;SDS011;10154;52.474;10.768;2023-03-23T01:41:14;5.47;;;2.50;;
19985;SDS011;10154;52.474;10.768;2023-03-23T01:46:33;6.10;;;2.90;;
19985;SDS011;10154;52.474;10.768;2023-03-23T01:49:02;5.60;;;2.30;;
19985;SDS011;10154;52.474;10.768;2023-03-23T01:51:33;4.17;;;2.10;;
19985;SDS011;10154;52.474;10.768;2023-03-23T01:54:02;7.03;;;2.20;;
19985;SDS011;10154;52.474;10.768;2023-03-23T01:56:31;4.93;;;2.07;;
19985;SDS011;10154;52.474;10.768;2023-03-23T01:59:08;3.67;;;2.10;;
19985;SDS011;10154;52.474;10.768;2023-03-23T02:01:36;3.77;;;1.80;;
19985;SDS011;10154;52.474;10.768;2023-03-23T02:04:10;5.97;;;2.27;;
19985;SDS011;10154;52.474;10.768;2023-03-23T02:06:37;6.13;;;2.10;;
19985;SDS011;10154;52.474;10.768;2023-03-23T02:09:02;5.40;;;2.20;;
19985;SDS011;10154;52.474;10.768;2023-03-23T02:11:31;5.77;;;2.20;;
19985;SDS011;10154;52.474;10.768;2023-03-23T02:13:56;6.37;;;2.47;;
19985;SDS011;10154;52.474;10.768;2023-03-23T02:28:05;4.03;;;2.37;;
19985;SDS011;10154;52.474;10.768;2023-03-23T02:35:42;5.40;;;2.50;;
19985;SDS011;10154;52.474;10.768;2023-03-23T02:38:15;5.60;;;2.40;;
19985;SDS011;10154;52.474;10.768;2023-03-23T02:40:44;5.23;;;2.50;;
19985;SDS011;10154;52.474;10.768;2023-03-23T02:43:13;4.53;;;2.37;;
19985;SDS011;10154;52.474;10.768;2023-03-23T02:45:40;6.80;;;2.53;;
19985;SDS011;10154;52.474;10.768;2023-03-23T02:48:07;9.37;;;2.50;;
19985;SDS011;10154;52.474;10.768;2023-03-23T02:50:33;6.50;;;2.70;;
19985;SDS011;10154;52.474;10.768;2023-03-23T02:53:00;3.10;;;2.20;;
19985;SDS011;10154;52.474;10.768;2023-03-23T02:55:27;7.27;;;2.60;;
19985;SDS011;10154;52.474;10.768;2023-03-23T02:57:53;7.93;;;2.40;;
19985;SDS011;10154;52.474;10.768;2023-03-23T03:00:20;4.83;;;2.57;;
19985;SDS011;10154;52.474;10.768;2023-03-23T03:02:46;7.50;;;2.50;;
19985;SDS011;10154;52.474;10.768;2023-03-23T03:05:35;4.87;;;2.47;;
19985;SDS011;10154;52.474;10.768;2023-03-23T03:16:24;4.13;;;2.10;;
19985;SDS011;10154;52.474;10.768;2023-03-23T03:19:10;6.73;;;2.20;;
19985;SDS011;10154;52.474;10.768;2023-03-23T03:21:41;4.03;;;2.10;;
19985;SDS011;10154;52.474;10.768;2023-03-23T03:24:08;5.13;;;2.20;;
19985;SDS011;10154;52.474;10.768;2023-03-23T03:26:36;4.17;;;2.47;;
19985;SDS011;10154;52.474;10.768;2023-03-23T03:29:03;4.60;;;1.90;;
19985;SDS011;10154;52.474;10.768;2023-03-23T03:31:31;4.27;;;2.20;;
19985;SDS011;10154;52.474;10.768;2023-03-23T03:33:58;4.33;;;2.00;;
19985;SDS011;10154;52.474;10.768;2023-03-23T03:36:27;4.13;;;2.03;;
19985;SDS011;10154;52.474;10.768;2023-03-23T03:38:59;4.93;;;2.30;;
19985;SDS011;10154;52.474;10.768;2023-03-23T03:41:28;5.43;;;2.17;;
19985;SDS011;10154;52.474;10.768;2023-03-23T03:43:54;3.63;;;2.07;;
19985;SDS011;10154;52.474;10.768;2023-03-23T03:46:19;4.17;;;2.13;;
19985;SDS011;10154;52.474;10.768;2023-03-23T03:48:45;4.67;;;2.03;;
19985;SDS011;10154;52.474;10.768;2023-03-23T03:51:10;3.37;;;2.10;;
19985;SDS011;10154;52.474;10.768;2023-03-23T03:53:36;6.37;;;2.17;;
19985;SDS011;10154;52.474;10.768;2023-03-23T03:56:01;4.93;;;2.00;;
19985;SDS011;10154;52.474;10.768;2023-03-23T03:58:26;5.17;;;2.30;;
19985;SDS011;10154;52.474;10.768;2023-03-23T04:00:59;4.87;;;2.20;;
19985;SDS011;10154;52.474;10.768;2023-03-23T04:03:25;3.23;;;2.17;;
19985;SDS011;10154;52.474;10.768;2023-03-23T04:05:52;9.20;;;2.17;;
19985;SDS011;10154;52.474;10.768;2023-03-23T04:08:20;4.57;;;2.07;;
19985;SDS011;10154;52.474;10.768;2023-03-23T04:10:48;3.50;;;2.20;;
19985;SDS011;10154;52.474;10.768;2023-03-23T04:13:14;4.93;;;1.80;;
19985;SDS011;10154;52.474;10.768;2023-03-23T04:15:40;5.17;;;2.40;;
19985;SDS011;10154;52.474;10.768;2023-03-23T04:18:06;3.33;;;2.33;;
19985;SDS011;10154;52.474;10.768;2023-03-23T04:20:31;7.37;;;2.27;;
19985;SDS011;10154;52.474;10.768;2023-03-23T04:22:57;6.17;;;2.50;;
19985;SDS011;10154;52.474;10.768;2023-03-23T04:25:22;5.97;;;2.40;;
19985;SDS011;10154;52.474;10.768;2023-03-23T04:27:51;5.50;;;2.30;;
19985;SDS011;10154;52.474;10.768;2023-03-23T04:30:20;4.63;;;2.30;;
19985;SDS011;10154;52.474;10.768;2023-03-23T04:32:47;4.87;;;2.33;;
19985;SDS011;10154;52.474;10.768;2023-03-23T04:35:15;4.23;;;2.20;;
19985;SDS011;10154;52.474;10.768;2023-03-23T04:37:42;5.43;;;2.40;;
19985;SDS011;10154;52.474;10.768;2023-03-23T04:40:08;3.57;;;2.30;;
19985;SDS011;10154;52.474;10.768;2023-03-23T04:42:39;4.53;;;2.30;;
19985;SDS011;10154;52.474;10.768;2023-03-23T04:45:06;3.43;;;2.20;;
19985;SDS011;10154;52.474;10.768;2023-03-23T04:47:33;6.50;;;2.43;;
19985;SDS011;10154;52.474;10.768;2023-03-23T04:50:04;4.33;;;2.37;;
19985;SDS011;10154;52.474;10.768;2023-03-23T04:52:34;4.90;;;2.27;;
19985;SDS011;10154;52.474;10.768;2023-03-23T04:55:02;2.40;;;2.00;;
19985;SDS011;10154;52.474;10.768;2023-03-23T04:57:29;5.30;;;2.50;;
19985;SDS011;10154;52.474;10.768;2023-03-23T04:59:54;4.73;;;2.23;;
19985;SDS011;10154;52.474;10.768;2023-03-23T05:02:20;7.23;;;2.40;;
19985;SDS011;10154;52.474;10.768;2023-03-23T05:04:45;6.67;;;2.50;;
19985;SDS011;10154;52.474;10.768;2023-03-23T05:07:10;3.73;;;2.30;;
19985;SDS011;10154;52.474;10.768;2023-03-23T05:09:36;7.57;;;2.43;;
19985;SDS011;10154;52.474;10.768;2023-03-23T05:12:05;4.40;;;2.30;;
19985;SDS011;10154;52.474;10.768;2023-03-23T05:14:32;6.87;;;3.20;;
19985;SDS011;10154;52.474;10.768;2023-03-23T05:16:57;5.40;;;2.53;;
19985;SDS011;10154;52.474;10.768;2023-03-23T05:19:23;6.37;;;2.90;;
19985;SDS011;10154;52.474;10.768;2023-03-23T05:21:48;6.40;;;2.53;;
19985;SDS011;10154;52.474;10.768;2023-03-23T05:24:51;4.67;;;2.50;;
19985;SDS011;10154;52.474;10.768;2023-03-23T05:27:16;5.07;;;2.90;;
19985;SDS011;10154;52.474;10.768;2023-03-23T05:29:46;7.00;;;2.80;;
19985;SDS011;10154;52.474;10.768;2023-03-23T05:32:16;7.30;;;2.80;;
19985;SDS011;10154;52.474;10.768;2023-03-23T05:34:46;5.53;;;2.27;;
19985;SDS011;10154;52.474;10.768;2023-03-23T05:37:13;7.83;;;2.40;;
19985;SDS011;10154;52.474;10.768;2023-03-23T05:39:39;6.77;;;2.30;;
19985;SDS011;10154;52.474;10.768;2023-03-23T05:42:05;3.97;;;2.20;;
19985;SDS011;10154;52.474;10.768;2023-03-23T05:44:31;6.30;;;2.63;;
19985;SDS011;10154;52.474;10.768;2023-03-23T05:46:56;6.13;;;2.30;;
19985;SDS011;10154;52.474;10.768;2023-03-23T05:49:22;6.30;;;2.37;;
19985;SDS011;10154;52.474;10.768;2023-03-23T05:51:47;3.37;;;2.17;;
19985;SDS011;10154;52.474;10.768;2023-03-23T05:54:15;4.13;;;2.40;;
19985;SDS011;10154;52.474;10.768;2023-03-23T05:56:41;7.07;;;2.30;;
19985;SDS011;10154;52.474;10.768;2023-03-23T05:59:07;5.07;;;2.50;;
19985;SDS011;10154;52.474;10.768;2023-03-23T06:01:36;5.37;;;2.50;;
19985;SDS011;10154;52.474;10.768;2023-03-23T06:04:02;4.90;;;2.87;;
19985;SDS011;10154;52.474;10.768;2023-03-23T06:06:30;4.00;;;1.97;;
19985;SDS011;10154;52.474;10.768;2023-03-23T06:08:57;4.37;;;2.10;;
19985;SDS011;10154;52.474;10.768;2023-03-23T06:11:26;5.37;;;2.20;;
19985;SDS011;10154;52.474;10.768;2023-03-23T06:13:51;2.67;;;2.00;;
19985;SDS011;10154;52.474;10.768;2023-03-23T06:16:17;5.23;;;2.07;;
19985;SDS011;10154;52.474;10.768;2023-03-23T06:18:44;4.63;;;1.93;;
19985;SDS011;10154;52.474;10.768;2023-03-23T06:21:09;2.80;;;2.00;;
19985;SDS011;10154;52.474;10.768;2023-03-23T06:23:36;21.17;;;2.50;;
19985;SDS011;10154;52.474;10.768;2023-03-23T06:26:03;5.00;;;2.13;;
19985;SDS011;10154;52.474;10.768;2023-03-23T06:28:30;5.10;;;2.23;;
19985;SDS011;10154;52.474;10.768;2023-03-23T06:30:58;4.07;;;2.20;;
19985;SDS011;10154;52.474;10.768;2023-03-23T06:33:31;3.50;;;2.07;;
19985;SDS011;10154;52.474;10.768;2023-03-23T06:35:56;5.50;;;2.20;;
19985;SDS011;10154;52.474;10.768;2023-03-23T06:38:22;4.53;;;2.10;;
19985;SDS011;10154;52.474;10.768;2023-03-23T06:40:48;5.50;;;2.10;;
19985;SDS011;10154;52.474;10.768;2023-03-23T06:43:14;3.87;;;2.23;;
19985;SDS011;10154;52.474;10.768;2023-03-23T06:45:40;3.03;;;1.80;;
19985;SDS011;10154;52.474;10.768;2023-03-23T06:48:05;4.73;;;1.93;;
19985;SDS011;10154;52.474;10.768;2023-03-23T06:50:31;3.87;;;1.90;;
19985;SDS011;10154;52.474;10.768;2023-03-23T06:52:57;3.37;;;1.80;;
19985;SDS011;10154;52.474;10.768;2023-03-23T06:55:22;2.10;;;1.60;;
19985;SDS011;10154;52.474;10.768;2023-03-23T06:57:48;5.90;;;1.80;;
19985;SDS011;10154;52.474;10.768;2023-03-23T07:00:13;3.13;;;1.90;;
19985;SDS011;10154;52.474;10.768;2023-03-23T07:02:39;4.00;;;1.90;;
19985;SDS011;10154;52.474;10.768;2023-03-23T07:05:06;4.60;;;1.97;;
19985;SDS011;10154;52.474;10.768;2023-03-23T07:10:56;6.33;;;2.10;;
19985;SDS011;10154;52.474;10.768;2023-03-23T07:13:22;2.27;;;1.90;;
19985;SDS011;10154;52.474;10.768;2023-03-23T07:15:48;3.30;;;1.90;;
19985;SDS011;10154;52.474;10.768;2023-03-23T07:18:14;2.80;;;1.50;;
19985;SDS011;10154;52.474;10.768;2023-03-23T07:20:42;4.80;;;1.70;;
19985;SDS011;10154;52.474;10.768;2023-03-23T07:23:08;5.50;;;1.87;;
19985;SDS011;10154;52.474;10.768;2023-03-23T07:25:34;2.10;;;1.90;;
19985;SDS011;10154;52.474;10.768;2023-03-23T07:28:00;3.13;;;1.80;;
19985;SDS011;10154;52.474;10.768;2023-03-23T07:30:27;3.37;;;1.80;;
19985;SDS011;10154;52.474;10.768;2023-03-23T07:32:54;2.87;;;2.00;;
19985;SDS011;10154;52.474;10.768;2023-03-23T07:35:20;5.17;;;2.20;;
19985;SDS011;10154;52.474;10.768;2023-03-23T07:37:45;2.30;;;1.80;;
19985;SDS011;10154;52.474;10.768;2023-03-23T07:40:14;3.20;;;1.97;;
19985;SDS011;10154;52.474;10.768;2023-03-23T07:42:40;4.73;;;2.00;;
19985;SDS011;10154;52.474;10.768;2023-03-23T07:45:07;2.60;;;1.83;;
19985;SDS011;10154;52.474;10.768;2023-03-23T07:47:34;2.97;;;1.80;;
19985;SDS011;10154;52.474;10.768;2023-03-23T07:49:59;2.77;;;1.70;;
19985;SDS011;10154;52.474;10.768;2023-03-23T07:52:25;3.03;;;1.83;;
19985;SDS011;10154;52.474;10.768;2023-03-23T07:54:50;2.40;;;1.60;;
19985;SDS011;10154;52.474;10.768;2023-03-23T07:57:16;3.93;;;1.80;;
19985;SDS011;10154;52.474;10.768;2023-03-23T07:59:42;2.43;;;1.67;;
19985;SDS011;10154;52.474;10.768;2023-03-23T08:02:08;3.37;;;1.80;;
19985;SDS011;10154;52.474;10.768;2023-03-23T08:04:35;2.97;;;1.60;;
19985;SDS011;10154;52.474;10.768;2023-03-23T08:07:02;3.13;;;1.83;;
19985;SDS011;10154;52.474;10.768;2023-03-23T08:09:29;3.30;;;1.80;;
19985;SDS011;10154;52.474;10.768;2023-03-23T08:11:55;1.87;;;1.60;;
19985;SDS011;10154;52.474;10.768;2023-03-23T08:14:20;3.50;;;1.53;;
19985;SDS011;10154;52.474;10.768;2023-03-23T08:16:46;3.30;;;1.60;;
19985;SDS011;10154;52.474;10.768;2023-03-23T08:19:11;6.30;;;1.80;;
19985;SDS011;10154;52.474;10.768;2023-03-23T08:21:37;2.20;;;1.70;;
19985;SDS011;10154;52.474;10.768;2023-03-23T08:24:02;3.07;;;1.97;;
19985;SDS011;10154;52.474;10.768;2023-03-23T08:26:28;1.67;;;1.50;;
19985;SDS011;10154;52.474;10.768;2023-03-23T08:29:05;1.80;;;1.40;;
19985;SDS011;10154;52.474;10.768;2023-03-23T08:34:32;4.07;;;1.80;;
19985;SDS011;10154;52.474;10.768;2023-03-23T08:36:57;2.30;;;1.60;;
19985;SDS011;10154;52.474;10.768;2023-03-23T08:39:23;2.73;;;1.50;;
19985;SDS011;10154;52.474;10.768;2023-03-23T08:41:49;2.00;;;1.40;;
19985;SDS011;10154;52.474;10.768;2023-03-23T08:44:14;2.70;;;1.43;;
19985;SDS011;10154;52.474;10.768;2023-03-23T08:46:40;2.03;;;1.57;;
19985;SDS011;10154;52.474;10.768;2023-03-23T08:49:06;2.57;;;1.30;;
19985;SDS011;10154;52.474;10.768;2023-03-23T08:51:32;2.00;;;1.40;;
19985;SDS011;10154;52.474;10.768;2023-03-23T08:53:57;3.53;;;1.63;;
19985;SDS011;10154;52.474;10.768;2023-03-23T08:56:23;3.97;;;1.70;;
19985;SDS011;10154;52.474;10.768;2023-03-23T08:58:49;2.43;;;1.50;;
19985;SDS011;10154;52.474;10.768;2023-03-23T09:01:15;2.57;;;1.70;;
19985;SDS011;10154;52.474;10.768;2023-03-23T09:03:40;2.60;;;1.40;;
19985;SDS011;10154;52.474;10.768;2023-03-23T09:06:07;2.37;;;1.50;;
19985;SDS011;10154;52.474;10.768;2023-03-23T09:08:34;5.37;;;1.50;;
19985;SDS011;10154;52.474;10.768;2023-03-23T09:11:04;3.08;;;1.77;;
19985;SDS011;10154;52.474;10.768;2023-03-23T09:13:32;2.63;;;1.50;;
19985;SDS011;10154;52.474;10.768;2023-03-23T09:16:00;4.10;;;1.70;;
19985;SDS011;10154;52.474;10.768;2023-03-23T09:18:26;2.93;;;1.60;;
19985;SDS011;10154;52.474;10.768;2023-03-23T09:20:52;2.13;;;1.60;;
19985;SDS011;10154;52.474;10.768;2023-03-23T09:23:18;2.53;;;1.50;;
19985;SDS011;10154;52.474;10.768;2023-03-23T09:25:43;3.30;;;1.60;;
19985;SDS011;10154;52.474;10.768;2023-03-23T09:28:09;2.15;;;1.60;;
19985;SDS011;10154;52.474;10.768;2023-03-23T09:30:35;3.70;;;1.37;;
19985;SDS011;10154;52.474;10.768;2023-03-23T09:33:03;1.92;;;1.30;;
19985;SDS011;10154;52.474;10.768;2023-03-23T09:35:29;4.95;;;1.60;;
19985;SDS011;10154;52.474;10.768;2023-03-23T09:37:56;2.53;;;1.50;;
19985;SDS011;10154;52.474;10.768;2023-03-23T09:48:45;3.38;;;1.60;;
19985;SDS011;10154;52.474;10.768;2023-03-23T09:51:31;6.93;;;1.60;;
19985;SDS011;10154;52.474;10.768;2023-03-23T09:54:03;5.77;;;1.70;;
19985;SDS011;10154;52.474;10.768;2023-03-23T09:56:31;5.10;;;1.60;;
19985;SDS011;10154;52.474;10.768;2023-03-23T09:59:07;3.45;;;1.52;;
19985;SDS011;10154;52.474;10.768;2023-03-23T10:01:43;4.57;;;1.70;;
19985;SDS011;10154;52.474;10.768;2023-03-23T10:04:30;2.03;;;1.50;;
19985;SDS011;10154;52.474;10.768;2023-03-23T10:07:06;2.92;;;1.30;;
19985;SDS011;10154;52.474;10.768;2023-03-23T10:09:35;3.58;;;1.70;;
19985;SDS011;10154;52.474;10.768;2023-03-23T10:15:17;3.80;;;2.00;;
19985;SDS011;10154;52.474;10.768;2023-03-23T10:21:11;5.87;;;1.63;;
19985;SDS011;10154;52.474;10.768;2023-03-23T10:31:13;3.90;;;1.60;;
19985;SDS011;10154;52.474;10.768;2023-03-23T10:34:21;4.20;;;1.63;;
19985;SDS011;10154;52.474;10.768;2023-03-23T10:36:52;5.13;;;1.55;;
19985;SDS011;10154;52.474;10.768;2023-03-23T10:39:21;7.07;;;1.63;;
19985;SDS011;10154;52.474;10.768;2023-03-23T10:41:48;6.22;;;1.60;;
19985;SDS011;10154;52.474;10.768;2023-03-23T10:44:19;6.07;;;1.60;;
19985;SDS011;10154;52.474;10.768;2023-03-23T10:46:57;9.40;;;2.03;;
19985;SDS011;10154;52.474;10.768;2023-03-23T10:55:10;7.18;;;1.83;;
19985;SDS011;10154;52.474;10.768;2023-03-23T10:57:38;7.65;;;1.80;;
19985;SDS011;10154;52.474;10.768;2023-03-23T11:02:38;2.45;;;1.50;;
19985;SDS011;10154;52.474;10.768;2023-03-23T11:05:31;3.60;;;1.73;;
19985;SDS011;10154;52.474;10.768;2023-03-23T11:07:57;6.25;;;1.65;;
19985;SDS011;10154;52.474;10.768;2023-03-23T11:10:25;3.25;;;1.60;;
19985;SDS011;10154;52.474;10.768;2023-03-23T11:13:01;6.60;;;1.83;;
19985;SDS011;10154;52.474;10.768;2023-03-23T11:15:48;3.72;;;1.70;;
19985;SDS011;10154;52.474;10.768;2023-03-23T11:18:20;6.07;;;1.73;;
19985;SDS011;10154;52.474;10.768;2023-03-23T11:20:49;6.75;;;1.50;;
19985;SDS011;10154;52.474;10.768;2023-03-23T11:23:25;7.47;;;1.85;;
19985;SDS011;10154;52.474;10.768;2023-03-23T11:25:54;5.05;;;1.88;;
19985;SDS011;10154;52.474;10.768;2023-03-23T11:28:48;3.65;;;1.60;;
19985;SDS011;10154;52.474;10.768;2023-03-23T11:31:23;5.35;;;1.90;;
19985;SDS011;10154;52.474;10.768;2023-03-23T11:33:54;5.43;;;2.15;;
19985;SDS011;10154;52.474;10.768;2023-03-23T11:36:47;4.65;;;1.75;;
19985;SDS011;10154;52.474;10.768;2023-03-23T11:41:59;6.78;;;1.98;;
19985;SDS011;10154;52.474;10.768;2023-03-23T11:44:40;5.90;;;1.90;;
19985;SDS011;10154;52.474;10.768;2023-03-23T11:50:16;6.13;;;1.88;;
19985;SDS011;10154;52.474;10.768;2023-03-23T11:52:52;10.68;;;1.85;;
19985;SDS011;10154;52.474;10.768;2023-03-23T11:58:28;6.38;;;1.98;;
19985;SDS011;10154;52.474;10.768;2023-03-23T12:09:26;3.63;;;1.77;;
19985;SDS011;10154;52.474;10.768;2023-03-23T12:17:46;6.18;;;1.77;;
19985;SDS011;10154;52.474;10.768;2023-03-23T12:23:55;5.72;;;1.88;;
19985;SDS011;10154;52.474;10.768;2023-03-23T12:26:35;4.47;;;2.00;;
19985;SDS011;10154;52.474;10.768;2023-03-23T12:34:53;8.05;;;2.10;;
19985;SDS011;10154;52.474;10.768;2023-03-23T12:37:35;8.55;;;2.00;;
19985;SDS011;10154;52.474;10.768;2023-03-23T12:40:30;11.75;;;2.00;;
19985;SDS011;10154;52.474;10.768;2023-03-23T12:49:37;7.07;;;1.90;;
19985;SDS011;10154;52.474;10.768;2023-03-23T13:08:52;7.03;;;2.13;;
19985;SDS011;10154;52.474;10.768;2023-03-23T13:11:30;5.93;;;1.80;;
19985;SDS011;10154;52.474;10.768;2023-03-23T13:14:38;5.60;;;2.10;;
19985;SDS011;10154;52.474;10.768;2023-03-23T13:20:45;5.35;;;2.13;;
19985;SDS011;10154;52.474;10.768;2023-03-23T13:23:39;8.88;;;2.40;;
19985;SDS011;10154;52.474;10.768;2023-03-23T13:26:14;5.63;;;2.20;;
19985;SDS011;10154;52.474;10.768;2023-03-23T13:29:01;6.82;;;2.20;;
19985;SDS011;10154;52.474;10.768;2023-03-23T13:31:34;5.25;;;1.88;;
19985;SDS011;10154;52.474;10.768;2023-03-23T13:34:05;5.57;;;1.98;;
19985;SDS011;10154;52.474;10.768;2023-03-23T13:36:39;4.20;;;2.00;;
19985;SDS011;10154;52.474;10.768;2023-03-23T13:39:23;3.30;;;2.00;;
19985;SDS011;10154;52.474;10.768;2023-03-23T13:50:02;6.97;;;2.00;;
19985;SDS011;10154;52.474;10.768;2023-03-23T13:52:46;3.08;;;1.60;;
19985;SDS011;10154;52.474;10.768;2023-03-23T13:57:54;4.60;;;1.92;;
19985;SDS011;10154;52.474;10.768;2023-03-23T14:00:35;6.25;;;1.90;;
19985;SDS011;10154;52.474;10.768;2023-03-23T14:05:42;3.78;;;1.80;;
19985;SDS011;10154;52.474;10.768;2023-03-23T14:08:14;5.95;;;1.90;;
19985;SDS011;10154;52.474;10.768;2023-03-23T14:10:51;3.67;;;1.88;;
19985;SDS011;10154;52.474;10.768;2023-03-23T14:19:01;3.37;;;1.60;;
19985;SDS011;10154;52.474;10.768;2023-03-23T14:24:03;2.47;;;1.67;;
19985;SDS011;10154;52.474;10.768;2023-03-23T14:26:35;2.88;;;1.70;;
19985;SDS011;10154;52.474;10.768;2023-03-23T14:29:01;3.92;;;1.67;;
19985;SDS011;10154;52.474;10.768;2023-03-23T14:31:28;1.53;;;1.30;;
19985;SDS011;10154;52.474;10.768;2023-03-23T14:33:54;2.13;;;1.50;;
19985;SDS011;10154;52.474;10.768;2023-03-23T14:36:21;3.60;;;1.50;;
19985;SDS011;10154;52.474;10.768;2023-03-23T14:38:54;1.87;;;1.40;;
19985;SDS011;10154;52.474;10.768;2023-03-23T14:41:22;4.27;;;1.30;;
19985;SDS011;10154;52.474;10.768;2023-03-23T14:43:50;3.03;;;1.10;;
19985;SDS011;10154;52.474;10.768;2023-03-23T14:46:15;1.23;;;1.10;;
19985;SDS011;10154;52.474;10.768;2023-03-23T14:48:41;1.63;;;1.10;;
19985;SDS011;10154;52.474;10.768;2023-03-23T14:51:06;1.43;;;0.90;;
19985;SDS011;10154;52.474;10.768;2023-03-23T14:56:10;2.00;;;1.30;;
19985;SDS011;10154;52.474;10.768;2023-03-23T14:58:37;2.63;;;1.37;;
19985;SDS011;10154;52.474;10.768;2023-03-23T15:01:07;1.83;;;1.30;;
19985;SDS011;10154;52.474;10.768;2023-03-23T15:03:40;2.47;;;1.30;;
19985;SDS011;10154;52.474;10.768;2023-03-23T15:06:15;3.93;;;1.50;;
19985;SDS011;10154;52.474;10.768;2023-03-23T15:08:41;5.20;;;1.50;;
19985;SDS011;10154;52.474;10.768;2023-03-23T15:11:12;2.13;;;1.50;;
19985;SDS011;10154;52.474;10.768;2023-03-23T15:13:47;6.37;;;1.50;;
19985;SDS011;10154;52.474;10.768;2023-03-23T15:16:15;2.00;;;1.40;;
19985;SDS011;10154;52.474;10.768;2023-03-23T15:18:47;3.37;;;1.60;;
19985;SDS011;10154;52.474;10.768;2023-03-23T15:21:21;4.33;;;1.60;;
19985;SDS011;10154;52.474;10.768;2023-03-23T15:23:50;5.63;;;1.67;;
19985;SDS011;10154;52.474;10.768;2023-03-23T15:26:26;4.83;;;1.60;;
19985;SDS011;10154;52.474;10.768;2023-03-23T15:31:39;3.50;;;1.40;;
19985;SDS011;10154;52.474;10.768;2023-03-23T15:34:13;2.53;;;1.60;;
19985;SDS011;10154;52.474;10.768;2023-03-23T15:37:00;2.73;;;1.53;;
19985;SDS011;10154;52.474;10.768;2023-03-23T15:39:27;2.33;;;1.40;;
19985;SDS011;10154;52.474;10.768;2023-03-23T15:41:54;6.87;;;1.83;;
19985;SDS011;10154;52.474;10.768;2023-03-23T15:44:24;7.30;;;1.90;;
19985;SDS011;10154;52.474;10.768;2023-03-23T15:46:53;4.70;;;1.63;;
19985;SDS011;10154;52.474;10.768;2023-03-23T15:49:27;3.13;;;2.00;;
19985;SDS011;10154;52.474;10.768;2023-03-23T15:51:52;2.93;;;1.60;;
19985;SDS011;10154;52.474;10.768;2023-03-23T15:54:18;2.40;;;1.50;;
19985;SDS011;10154;52.474;10.768;2023-03-23T15:56:43;5.40;;;1.70;;
19985;SDS011;10154;52.474;10.768;2023-03-23T15:59:09;3.43;;;1.50;;
19985;SDS011;10154;52.474;10.768;2023-03-23T16:01:36;2.77;;;1.50;;
19985;SDS011;10154;52.474;10.768;2023-03-23T16:04:10;2.87;;;1.50;;
19985;SDS011;10154;52.474;10.768;2023-03-23T16:06:38;2.87;;;1.50;;
19985;SDS011;10154;52.474;10.768;2023-03-23T16:09:04;2.43;;;1.50;;
19985;SDS011;10154;52.474;10.768;2023-03-23T16:11:31;1.93;;;1.37;;
19985;SDS011;10154;52.474;10.768;2023-03-23T16:13:57;4.87;;;1.50;;
19985;SDS011;10154;52.474;10.768;2023-03-23T16:16:43;3.47;;;1.50;;
19985;SDS011;10154;52.474;10.768;2023-03-23T16:19:11;3.70;;;1.67;;
19985;SDS011;10154;52.474;10.768;2023-03-23T16:21:37;2.47;;;1.53;;
19985;SDS011;10154;52.474;10.768;2023-03-23T16:24:03;3.50;;;1.60;;
19985;SDS011;10154;52.474;10.768;2023-03-23T16:26:28;3.83;;;1.97;;
19985;SDS011;10154;52.474;10.768;2023-03-23T16:28:54;2.63;;;1.70;;
19985;SDS011;10154;52.474;10.768;2023-03-23T16:31:20;3.63;;;2.00;;
19985;SDS011;10154;52.474;10.768;2023-03-23T16:33:45;3.70;;;1.80;;
19985;SDS011;10154;52.474;10.768;2023-03-23T16:36:11;4.00;;;1.73;;
19985;SDS011;10154;52.474;10.768;2023-03-23T16:38:37;4.50;;;2.07;;
19985;SDS011;10154;52.474;10.768;2023-03-23T16:41:03;5.87;;;1.80;;
19985;SDS011;10154;52.474;10.768;2023-03-23T16:43:29;4.73;;;1.93;;
19985;SDS011;10154;52.474;10.768;2023-03-23T16:45:58;4.67;;;1.90;;
19985;SDS011;10154;52.474;10.768;2023-03-23T16:48:23;5.80;;;2.00;;
19985;SDS011;10154;52.474;10.768;2023-03-23T16:50:51;3.27;;;1.90;;
19985;SDS011;10154;52.474;10.768;2023-03-23T16:53:18;3.30;;;2.10;;
19985;SDS011;10154;52.474;10.768;2023-03-23T16:55:44;4.47;;;2.00;;
19985;SDS011;10154;52.474;10.768;2023-03-23T16:58:12;4.83;;;2.10;;
19985;SDS011;10154;52.474;10.768;2023-03-23T17:00:41;3.80;;;1.97;;
19985;SDS011;10154;52.474;10.768;2023-03-23T17:03:06;4.33;;;1.90;;
19985;SDS011;10154;52.474;10.768;2023-03-23T17:05:32;5.90;;;2.40;;
19985;SDS011;10154;52.474;10.768;2023-03-23T17:07:59;4.30;;;1.97;;
19985;SDS011;10154;52.474;10.768;2023-03-23T17:10:25;4.03;;;1.97;;
19985;SDS011;10154;52.474;10.768;2023-03-23T17:12:52;2.93;;;1.63;;
19985;SDS011;10154;52.474;10.768;2023-03-23T17:15:18;3.63;;;1.70;;
19985;SDS011;10154;52.474;10.768;2023-03-23T17:17:45;2.77;;;1.70;;